Pagrindinis puslapis
METAR-TAF:

METAR-TAF

Oro uostai :

Abadanas, Iranas

platuma: 30-22N, ilguma: 048-15E, Aukštis: 3 m

Dabartinis oras

Ataskaita buvo paskelbta 57 minutes, ne 07:00 UTC
Vėjas 4 kt iš Vakarų/Šiaurės Vakarų
Temperatūra 29°C
Drėgmė 29%
Slėgis 1013 hPa
Matomumas: 7000 m

METAR: OIAA 210700Z 29004KT 7000 NSC 29/09 Q1013

Laikas: 11:27 (07:57 UTC)

Prognozė

Ataskaita buvo paskelbta 2 valandos ir 27 minutes, ne 05:30 UTC
Prognozė galioja nuo 21 metu 06 UTC su 22 metu 12 UTC
Vėjas 4 kt iš Vakarų/Šiaurės Vakarų
Matomumas: 7000 m
Laikinai
nuo 21 metu 12 UTC su 21 metu 15 UTC
Vėjas 18 kt iš Šiaurės/Šiaurės Vakarų
Tikimybė 40%
nuo 22 metu 00 UTC su 22 metu 06 UTC
Matomumas: 4000 m
migla

TAF: OIAA 210530Z 2106/2212 29004KT 7000 NSC TEMPO 2112/2115 33018KT PROB40 2200/2206 4000 HZ

Orai ataskaitas ir orų prognozės (METAR, TAF).

turimą stotys yra geltonos ir raudonos taškus žemėlapyje.

Perkelti pele per norėdami pamatyti stoties vardą.

Tada spustelėkite, norėdami matyti oro stebėjimo ir prognozės.

Norėdami pakeisti žemėlapį: spustelėkite ant žalios mygtukų su juodo kryžiaus žemyn,; žalią mygtuką su brūkšneliu, jei norite nutolinti; arba žalių rodyklių gretimoms žemėlapius.


METAR-TAF: